Time;durP1;ratioP1;P1;durP2;ratioP2;P2;SDS_P1;SDS_P2;PMS_P1;PMS_P2;Temp;Humidity;BMP_temperature;BMP_pressure;BME280_temperature;BME280_humidity;BME280_pressure;Samples;Min_cycle;Max_cycle;Signal;HPM_P1;HPM_P2
2023/12/31 00:02:23;;;;;;;9.40;8.43;;;;;;;22.36;32.03;95369.13;6162863;28;109160;-57
2023/12/31 00:05:26;;;;;;;8.30;7.60;;;;;;;22.37;31.89;95378.69;6177672;28;109263;-57
2023/12/31 00:08:30;;;;;;;8.00;7.20;;;;;;;22.36;31.81;95374.47;6159333;28;109272;-56
2023/12/31 00:11:33;;;;;;;8.37;7.63;;;;;;;22.37;31.78;95381.38;6156552;28;109183;-59
2023/12/31 00:14:38;;;;;;;7.90;7.20;;;;;;;22.36;31.97;95377.13;6171464;28;108854;-57
2023/12/31 00:17:41;;;;;;;9.27;8.37;;;;;;;22.35;31.73;95387.00;6170227;28;109446;-57
2023/12/31 00:20:44;;;;;;;8.60;7.80;;;;;;;22.36;31.65;95377.13;6177648;28;110082;-57
2023/12/31 00:23:49;;;;;;;9.27;8.47;;;;;;;22.34;31.69;95388.06;6171748;28;109507;-56
2023/12/31 00:26:52;;;;;;;9.10;8.20;;;;;;;22.34;31.76;95390.72;6162208;28;109426;-57
2023/12/31 00:29:55;;;;;;;9.47;8.57;;;;;;;22.34;31.50;95384.59;6169249;28;109023;-57
2023/12/31 00:32:58;;;;;;;9.43;8.43;;;;;;;22.33;31.62;95381.16;6171854;28;110231;-57
2023/12/31 00:36:01;;;;;;;9.70;8.80;;;;;;;22.34;31.81;95393.41;6162130;28;110153;-57
2023/12/31 00:39:06;;;;;;;10.00;9.00;;;;;;;22.32;31.67;95392.13;6161670;28;109400;-56
2023/12/31 00:42:09;;;;;;;9.77;8.87;;;;;;;22.33;31.39;95393.69;6167307;28;109101;-57
2023/12/31 00:45:13;;;;;;;10.33;9.33;;;;;;;22.35;31.15;95397.66;6174269;28;109546;-56
2023/12/31 00:48:16;;;;;;;11.27;10.27;;;;;;;22.37;31.57;95397.38;6184566;28;109258;-56
2023/12/31 00:51:19;;;;;;;10.13;9.20;;;;;;;22.39;31.35;95395.97;6186818;28;110216;-56
2023/12/31 00:54:23;;;;;;;13.20;9.70;;;;;;;22.39;31.27;95395.97;6174564;28;109220;-57
2023/12/31 00:57:26;;;;;;;10.37;9.43;;;;;;;22.39;31.58;95401.31;6167717;28;110506;-57
2023/12/31 01:00:29;;;;;;;10.40;9.40;;;;;;;22.40;31.51;95391.44;6161668;28;109069;-56
2023/12/31 01:03:34;;;;;;;11.20;10.10;;;;;;;22.40;31.74;95386.09;6162809;28;109020;-56
2023/12/31 01:06:37;;;;;;;11.00;10.00;;;;;;;22.39;31.65;95390.66;6170235;28;109239;-56
2023/12/31 01:09:41;;;;;;;10.07;9.10;;;;;;;22.40;31.63;95386.09;6183453;28;109120;-56
2023/12/31 01:12:44;;;;;;;11.60;10.60;;;;;;;22.38;31.60;95382.94;6164864;28;109266;-56
2023/12/31 01:15:47;;;;;;;10.80;9.80;;;;;;;22.36;31.60;95375.25;6166214;28;109104;-57
2023/12/31 01:18:50;;;;;;;10.83;9.83;;;;;;;22.36;31.81;95375.25;6167257;28;110204;-57
2023/12/31 01:21:55;;;;;;;10.90;9.90;;;;;;;22.34;31.68;95368.63;6166086;28;109195;-56
2023/12/31 01:25:00;;;;;;;10.80;9.70;;;;;;;22.35;31.34;95371.00;6171787;28;109807;-57
2023/12/31 01:28:04;;;;;;;10.67;9.67;;;;;;;22.32;31.77;95360.91;6156928;28;109993;-56
2023/12/31 01:31:07;;;;;;;10.67;9.77;;;;;;;22.34;31.35;95368.63;6166762;28;109079;-57
2023/12/31 01:34:10;;;;;;;10.63;9.73;;;;;;;22.32;31.81;95368.13;6183771;28;108881;-57
2023/12/31 01:37:13;;;;;;;11.30;10.20;;;;;;;22.32;31.38;95370.78;6173914;28;109940;-56
2023/12/31 01:40:18;;;;;;;10.77;9.77;;;;;;;22.34;31.83;95371.28;6152180;28;110633;-56
2023/12/31 01:43:21;;;;;;;10.60;9.50;;;;;;;22.30;31.64;95364.97;6183099;28;110594;-56
2023/12/31 01:46:28;;;;;;;11.50;10.50;;;;;;;22.33;31.57;95369.69;6169703;28;109203;-57
2023/12/31 01:49:33;;;;;;;10.40;9.40;;;;;;;22.31;31.87;95363.88;6185402;28;109142;-69
2023/12/31 01:52:36;;;;;;;10.10;9.20;;;;;;;22.35;31.35;95370.22;6152113;28;109026;-57
2023/12/31 01:55:41;;;;;;;10.57;9.50;;;;;;;22.38;31.34;95380.28;6158953;28;109263;-57
2023/12/31 01:58:44;;;;;;;10.47;9.47;;;;;;;22.36;31.65;95377.13;6159992;28;110329;-62
2023/12/31 02:01:49;;;;;;;10.30;9.30;;;;;;;22.34;31.30;95377.41;6160395;28;110316;-56
2023/12/31 02:04:59;;;;;;;9.60;8.60;;;;;;;22.33;31.47;95367.03;6168555;28;109236;-56
2023/12/31 02:08:02;;;;;;;9.17;8.27;;;;;;;22.31;31.41;95355.88;6184696;28;109077;-56
2023/12/31 02:11:08;;;;;;;9.20;8.40;;;;;;;22.31;31.91;95354.00;6164260;28;109410;-57
2023/12/31 02:14:11;;;;;;;8.37;7.57;;;;;;;22.30;31.41;95354.31;6153605;28;109265;-57
2023/12/31 02:17:14;;;;;;;8.90;8.10;;;;;;;22.30;31.87;95355.09;6170931;28;109091;-56
2023/12/31 02:20:18;;;;;;;9.33;8.53;;;;;;;22.29;32.08;95352.72;6177143;28;109151;-57
2023/12/31 02:23:21;;;;;;;9.53;8.70;;;;;;;22.29;31.54;95352.72;6159744;28;110021;-57
2023/12/31 02:26:25;;;;;;;9.27;8.40;;;;;;;22.28;31.37;95340.50;6161553;28;110470;-57
2023/12/31 02:29:29;;;;;;;8.90;8.10;;;;;;;22.21;31.77;95327.59;6167169;28;110168;-56
2023/12/31 02:32:32;;;;;;;8.60;7.90;;;;;;;22.28;31.95;95335.94;6159850;28;110211;-57
2023/12/31 02:35:35;;;;;;;8.07;7.30;;;;;;;22.27;31.42;95331.72;6177104;28;109122;-57
2023/12/31 02:38:38;;;;;;;8.30;7.60;;;;;;;22.29;31.40;95331.41;6174179;28;109236;-57
2023/12/31 02:41:42;;;;;;;8.37;7.57;;;;;;;22.28;31.69;95324.50;6166685;28;114298;-57
2023/12/31 02:44:45;;;;;;;8.90;8.10;;;;;;;22.28;31.41;95327.16;6160377;28;109067;-57
2023/12/31 02:47:49;;;;;;;8.50;7.70;;;;;;;22.28;31.41;95333.28;6154532;28;109104;-57
2023/12/31 02:50:52;;;;;;;8.60;7.17;;;;;;;22.25;31.27;95327.75;6153440;28;109179;-57
2023/12/31 02:53:55;;;;;;;8.30;7.60;;;;;;;22.27;31.35;95329.03;6160067;28;109966;-56
2023/12/31 02:56:59;;;;;;;7.97;7.27;;;;;;;22.28;31.84;95335.94;6171403;28;109581;-56
2023/12/31 03:00:04;;;;;;;7.57;6.87;;;;;;;22.27;31.88;95341.59;6158795;28;110068;-57
2023/12/31 03:03:07;;;;;;;7.53;6.83;;;;;;;22.27;31.85;95331.72;6159257;28;109091;-57
2023/12/31 03:06:15;;;;;;;7.77;7.07;;;;;;;22.26;31.71;95326.69;6171242;28;109260;-57
2023/12/31 03:09:18;;;;;;;8.27;7.10;;;;;;;22.26;31.29;95332.78;6178808;28;109694;-57
2023/12/31 03:12:22;;;;;;;8.07;7.37;;;;;;;22.25;31.75;95341.88;6151024;28;109151;-58
2023/12/31 03:15:25;;;;;;;7.83;7.13;;;;;;;22.26;31.32;95348.00;6183995;28;109098;-56
2023/12/31 03:18:28;;;;;;;7.63;7.03;;;;;;;22.26;31.83;95348.00;6163687;28;109552;-57
2023/12/31 03:21:32;;;;;;;7.13;6.43;;;;;;;22.25;31.75;95338.44;6174998;28;109112;-57
2023/12/31 03:24:35;;;;;;;7.33;6.63;;;;;;;22.24;31.77;95334.19;6181869;28;109287;-57
2023/12/31 03:27:39;;;;;;;7.60;6.90;;;;;;;22.21;31.78;95326.78;6162817;28;110255;-72
2023/12/31 03:30:42;;;;;;;6.93;6.33;;;;;;;22.25;31.59;95333.09;6162396;28;109274;-60
2023/12/31 03:33:46;;;;;;;7.07;6.47;;;;;;;22.26;31.46;95326.69;6153246;28;109252;-59
2023/12/31 03:36:49;;;;;;;7.03;6.40;;;;;;;22.26;31.46;95332.00;6166270;28;109016;-60
2023/12/31 03:39:54;;;;;;;7.10;6.40;;;;;;;22.23;31.68;95328.06;6166877;28;109308;-60
2023/12/31 03:42:59;;;;;;;6.50;5.90;;;;;;;22.26;31.42;95340.78;6187687;28;109045;-61
2023/12/31 03:46:02;;;;;;;7.20;6.50;;;;;;;22.24;31.42;95324.31;6165863;28;109992;-60
2023/12/31 03:49:05;;;;;;;6.90;6.30;;;;;;;22.22;31.29;95323.03;6162045;28;109256;-61
2023/12/31 03:52:08;;;;;;;7.10;6.40;;;;;;;22.26;31.47;95337.34;6163346;28;110147;-59
2023/12/31 03:55:12;;;;;;;6.40;5.80;;;;;;;22.24;31.07;95331.53;6176191;28;109119;-59
2023/12/31 03:58:16;;;;;;;6.17;5.57;;;;;;;22.23;31.31;95337.94;6151693;28;109929;-61
2023/12/31 04:01:19;;;;;;;6.20;5.70;;;;;;;22.22;31.04;95333.69;6161941;28;109700;-61
2023/12/31 04:04:25;;;;;;;6.33;5.80;;;;;;;22.22;31.29;95342.47;6162833;28;109192;-60
2023/12/31 04:07:28;;;;;;;6.67;6.07;;;;;;;22.21;31.54;95340.91;6155769;28;109001;-59
2023/12/31 04:10:32;;;;;;;6.63;6.07;;;;;;;22.22;31.36;95341.69;6173857;28;110395;-60
2023/12/31 04:13:36;;;;;;;6.17;5.57;;;;;;;22.21;31.04;95334.78;6179470;28;109043;-61
2023/12/31 04:16:39;;;;;;;6.50;5.90;;;;;;;22.22;31.42;95339.03;6162020;28;109073;-60
2023/12/31 04:19:43;;;;;;;6.60;6.00;;;;;;;22.21;31.56;95342.78;6154730;28;109083;-60
2023/12/31 04:22:46;;;;;;;6.30;5.70;;;;;;;22.22;30.93;95349.69;6162479;28;110365;-60
2023/12/31 04:25:49;;;;;;;6.40;5.90;;;;;;;22.22;31.31;95347.81;6173076;28;109545;-60
2023/12/31 04:28:54;;;;;;;6.40;5.80;;;;;;;22.22;31.10;95352.34;6169985;28;109096;-59
2023/12/31 04:31:58;;;;;;;6.50;5.90;;;;;;;22.22;31.33;95363.81;6150573;28;110076;-60
2023/12/31 04:35:01;;;;;;;6.37;5.80;;;;;;;22.21;30.86;95359.56;6167113;28;108824;-60
2023/12/31 04:38:04;;;;;;;7.50;6.83;;;;;;;22.22;31.07;95357.69;6186891;28;109310;-60
2023/12/31 04:41:07;;;;;;;6.87;6.17;;;;;;;22.21;31.12;95367.56;6162168;28;110200;-60
2023/12/31 04:44:12;;;;;;;6.87;6.20;;;;;;;22.16;31.28;95348.19;6156663;28;109232;-61
2023/12/31 04:47:15;;;;;;;8.10;6.97;;;;;;;22.21;31.12;95369.44;6163083;28;109261;-75
2023/12/31 04:50:18;;;;;;;7.43;6.73;;;;;;;22.20;31.12;95365.19;6161300;28;109199;-62
2023/12/31 04:53:22;;;;;;;8.20;6.93;;;;;;;22.20;31.49;95368.66;6151931;28;110535;-60
2023/12/31 04:56:27;;;;;;;7.57;6.83;;;;;;;22.20;31.45;95373.19;6171287;28;110212;-60
2023/12/31 04:59:31;;;;;;;7.27;6.67;;;;;;;22.21;30.95;95372.91;6168319;28;109146;-60
2023/12/31 05:02:34;;;;;;;7.30;6.60;;;;;;;22.19;31.28;95374.28;6174765;28;109277;-60
2023/12/31 05:05:37;;;;;;;8.03;7.33;;;;;;;22.18;31.07;95381.50;6156520;28;109330;-60
2023/12/31 05:08:43;;;;;;;7.40;6.70;;;;;;;22.18;30.81;95378.84;6170809;28;109040;-60
2023/12/31 05:11:46;;;;;;;8.00;7.30;;;;;;;22.18;31.33;95380.69;6174624;28;109272;-60
2023/12/31 05:14:50;;;;;;;8.80;8.00;;;;;;;22.17;31.33;95376.44;6172607;28;110382;-60
2023/12/31 05:17:53;;;;;;;8.40;7.70;;;;;;;22.18;31.18;95375.34;6157843;28;109245;-62
2023/12/31 05:20:57;;;;;;;8.77;7.97;;;;;;;22.17;31.18;95377.22;6173641;28;109018;-60
2023/12/31 05:24:00;;;;;;;8.67;7.90;;;;;;;22.19;31.35;95379.63;6170397;28;110617;-61
2023/12/31 05:27:03;;;;;;;9.97;9.07;;;;;;;22.19;30.96;95371.63;6155116;28;109273;-60
2023/12/31 05:30:10;;;;;;;9.67;8.77;;;;;;;22.18;30.68;95386.00;6168637;28;109216;-60
2023/12/31 05:33:13;;;;;;;8.97;8.07;;;;;;;22.18;31.36;95380.69;6170883;28;109261;-60
2023/12/31 05:36:17;;;;;;;10.07;9.07;;;;;;;22.17;31.23;95384.44;6171009;28;109204;-60
2023/12/31 05:39:20;;;;;;;9.27;8.47;;;;;;;22.15;31.15;95379.41;6163939;28;109227;-60
2023/12/31 05:42:23;;;;;;;9.50;8.70;;;;;;;22.15;31.27;95376.72;6169567;28;109132;-60
2023/12/31 05:45:27;;;;;;;9.63;8.70;;;;;;;22.14;31.24;95372.50;6169863;28;109449;-61
2023/12/31 05:48:30;;;;;;;9.10;8.30;;;;;;;22.14;31.28;95374.38;6173063;28;109106;-57
2023/12/31 05:51:34;;;;;;;9.57;8.67;;;;;;;22.16;30.97;95382.84;6165934;28;110014;-60
2023/12/31 05:54:38;;;;;;;10.00;8.97;;;;;;;22.14;31.04;95379.69;6183063;28;109114;-57
2023/12/31 05:57:43;;;;;;;10.17;9.30;;;;;;;22.14;31.02;95377.81;6174179;28;110110;-57
2023/12/31 06:00:47;;;;;;;9.50;8.60;;;;;;;22.17;30.91;95387.09;6176321;28;110593;-57
2023/12/31 06:03:51;;;;;;;10.17;9.20;;;;;;;22.18;30.99;95384.16;6174277;28;109789;-57
2023/12/31 06:06:54;;;;;;;11.10;9.10;;;;;;;22.20;30.73;95383.84;6162062;28;109063;-58
2023/12/31 06:09:57;;;;;;;10.40;9.50;;;;;;;22.22;31.03;95384.34;6175436;28;109443;-57
2023/12/31 06:13:01;;;;;;;9.23;8.30;;;;;;;22.27;31.03;95384.25;6149770;28;108995;-57
2023/12/31 06:16:07;;;;;;;10.30;9.40;;;;;;;22.27;30.78;95389.56;6176017;28;110148;-58
2023/12/31 06:19:10;;;;;;;11.97;10.47;;;;;;;22.31;31.20;95393.22;6161695;28;109252;-58
2023/12/31 06:22:13;;;;;;;12.00;10.80;;;;;;;22.29;30.64;95390.06;6168943;28;109253;-58
2023/12/31 06:25:16;;;;;;;13.63;12.53;;;;;;;22.27;30.85;95401.03;6151028;28;109136;-58
2023/12/31 06:28:19;;;;;;;11.87;10.73;;;;;;;22.25;30.90;95397.88;6165291;28;109411;-57
2023/12/31 06:31:23;;;;;;;12.83;11.73;;;;;;;22.24;30.74;95396.28;6178021;28;109110;-57
2023/12/31 06:34:27;;;;;;;12.47;11.37;;;;;;;22.28;30.86;95405.25;6174601;28;109685;-57
2023/12/31 06:37:30;;;;;;;12.07;11.07;;;;;;;22.24;30.79;95404.28;6156957;28;109115;-57
2023/12/31 06:40:33;;;;;;;13.07;12.00;;;;;;;22.21;30.77;95399.56;6183418;28;109017;-57
2023/12/31 06:43:36;;;;;;;15.87;14.47;;;;;;;22.19;30.41;95406.28;6176628;28;111060;-57
2023/12/31 06:46:42;;;;;;;18.60;16.80;;;;;;;22.16;30.49;95404.19;6154489;28;110122;-58
2023/12/31 06:49:49;;;;;;;19.83;18.13;;;;;;;22.09;30.15;95401.91;6166300;28;109221;-59
2023/12/31 06:52:52;;;;;;;20.70;18.60;;;;;;;22.11;30.38;95416.53;6168242;28;109059;-58
2023/12/31 06:55:55;;;;;;;19.20;17.50;;;;;;;22.14;29.84;95414.34;6167489;28;110680;-58
2023/12/31 06:58:58;;;;;;;19.37;17.47;;;;;;;22.16;30.29;95412.19;6157934;28;109335;-58
2023/12/31 07:02:03;;;;;;;18.27;16.37;;;;;;;22.18;30.33;95421.47;6167813;28;109442;-58
2023/12/31 07:05:08;;;;;;;17.43;15.73;;;;;;;22.42;30.18;95415.91;6165724;28;109506;-59
2023/12/31 07:08:11;;;;;;;17.67;16.07;;;;;;;22.95;29.52;95423.34;6164577;28;109114;-58
2023/12/31 07:11:16;;;;;;;17.40;15.90;;;;;;;23.16;28.86;95424.44;6165706;28;109293;-57
2023/12/31 07:14:21;;;;;;;17.80;16.17;;;;;;;23.24;28.97;95421.06;6170183;28;110630;-58
2023/12/31 07:17:26;;;;;;;16.93;15.50;;;;;;;23.32;28.89;95426.78;6165515;28;110371;-57
2023/12/31 07:20:32;;;;;;;16.30;14.80;;;;;;;23.32;29.35;95426.78;6157420;28;109563;-58
2023/12/31 07:23:36;;;;;;;16.90;15.40;;;;;;;23.49;28.76;95422.34;6169330;28;110264;-70
2023/12/31 07:26:39;;;;;;;17.10;15.67;;;;;;;23.58;29.14;95427.75;6165425;28;110095;-57
2023/12/31 07:29:42;;;;;;;16.33;14.73;;;;;;;23.57;29.20;95424.28;6167339;28;110326;-57
2023/12/31 07:32:46;;;;;;;16.13;14.73;;;;;;;23.28;29.20;95414.00;6156545;28;110211;-57
2023/12/31 07:35:49;;;;;;;15.83;14.37;;;;;;;23.12;29.61;95422.69;6166842;28;110295;-57
2023/12/31 07:38:52;;;;;;;16.00;14.50;;;;;;;23.03;30.00;95419.97;6173870;28;109194;-57
2023/12/31 07:41:56;;;;;;;16.17;14.70;;;;;;;22.98;30.15;95420.06;6173357;28;109136;-57
2023/12/31 07:44:59;;;;;;;17.30;15.77;;;;;;;22.98;29.77;95422.72;6161554;28;109254;-57
2023/12/31 07:48:08;;;;;;;15.77;14.37;;;;;;;22.94;30.29;95411.09;6169781;28;110744;-57
2023/12/31 07:51:12;;;;;;;17.70;16.10;;;;;;;22.99;29.75;95417.09;6164749;28;109212;-57
2023/12/31 07:54:15;;;;;;;15.60;14.10;;;;;;;23.04;30.07;95424.22;6160091;28;111017;-57
2023/12/31 07:57:18;;;;;;;15.67;14.27;;;;;;;23.05;30.03;95423.13;6160942;28;109266;-57
2023/12/31 08:00:22;;;;;;;15.20;13.80;;;;;;;23.05;30.25;95435.69;6167701;28;111480;-57
2023/12/31 08:03:28;;;;;;;15.20;13.70;;;;;;;23.03;30.84;95435.19;6162431;28;110088;-57
2023/12/31 08:06:31;;;;;;;14.17;12.90;;;;;;;23.04;30.52;95437.56;6158511;28;109893;-57
2023/12/31 08:09:34;;;;;;;15.00;13.63;;;;;;;23.01;30.59;95427.47;6171298;28;108943;-59
2023/12/31 08:12:38;;;;;;;14.40;13.20;;;;;;;23.02;30.68;95434.41;6167164;28;109529;-59
2023/12/31 08:15:41;;;;;;;14.77;13.47;;;;;;;23.01;30.57;95440.81;6165064;28;109673;-59
2023/12/31 08:18:46;;;;;;;14.80;13.50;;;;;;;22.98;30.94;95436.06;6161242;28;110347;-60
2023/12/31 08:21:49;;;;;;;15.40;13.57;;;;;;;22.94;31.46;95438.56;6170645;28;110086;-70
2023/12/31 08:24:52;;;;;;;13.80;12.60;;;;;;;22.90;31.66;95431.47;6166740;28;110771;-59
2023/12/31 08:27:55;;;;;;;14.50;13.10;;;;;;;22.88;31.41;95433.66;6166722;28;109332;-59
2023/12/31 08:30:59;;;;;;;13.87;12.57;;;;;;;22.87;31.32;95434.75;6160426;28;109683;-58
2023/12/31 08:34:04;;;;;;;14.23;12.90;;;;;;;22.86;31.24;95430.50;6169369;28;110145;-59
2023/12/31 08:37:07;;;;;;;14.80;13.50;;;;;;;22.83;31.31;95439.09;6170602;28;110372;-59
2023/12/31 08:40:11;;;;;;;14.30;12.90;;;;;;;22.81;31.36;95427.91;6163625;28;109757;-61
2023/12/31 08:43:15;;;;;;;14.37;12.87;;;;;;;22.82;31.46;95424.16;6167088;28;109039;-58
2023/12/31 08:46:19;;;;;;;16.77;14.97;;;;;;;22.80;31.66;95429.81;6173361;28;109788;-58
2023/12/31 08:49:26;;;;;;;15.17;13.70;;;;;;;22.82;31.91;95440.97;6171935;28;109426;-59
2023/12/31 08:52:29;;;;;;;23.20;18.20;;;;;;;22.67;31.93;95430.63;6154335;28;109091;-59
2023/12/31 08:55:32;;;;;;;18.87;16.97;;;;;;;22.69;32.14;95425.78;6169583;28;109013;-59
2023/12/31 08:58:35;;;;;;;17.97;16.00;;;;;;;22.72;32.07;95425.19;6171250;28;109444;-59
2023/12/31 09:01:38;;;;;;;16.93;15.13;;;;;;;22.76;31.56;95420.03;6170759;28;109196;-59
2023/12/31 09:04:43;;;;;;;15.23;13.83;;;;;;;22.79;32.03;95417.56;6157938;28;110312;-59
2023/12/31 09:07:46;;;;;;;16.17;14.47;;;;;;;22.80;31.89;95421.78;6168318;28;109614;-59
2023/12/31 09:10:54;;;;;;;16.73;14.73;;;;;;;22.83;31.73;95417.72;6171666;28;109075;-58
2023/12/31 09:13:57;;;;;;;16.53;14.90;;;;;;;22.81;32.08;95417.25;6162522;28;109299;-60
2023/12/31 09:17:01;;;;;;;15.00;13.40;;;;;;;22.83;31.87;95421.19;6164855;28;109019;-64
2023/12/31 09:20:08;;;;;;;16.60;15.10;;;;;;;22.73;32.17;95401.97;6169932;28;109384;-64
2023/12/31 09:23:12;;;;;;;16.30;14.77;;;;;;;22.79;32.22;95398.88;6174693;28;109158;-62
2023/12/31 09:26:16;;;;;;;15.43;13.93;;;;;;;22.80;32.23;95403.13;6158610;28;109399;-62
2023/12/31 09:29:19;;;;;;;15.50;13.97;;;;;;;22.81;32.62;95388.69;6174451;28;110303;-60
2023/12/31 09:32:23;;;;;;;15.97;14.37;;;;;;;22.78;32.53;95385.84;6170286;28;109319;-60
2023/12/31 09:35:27;;;;;;;15.43;13.83;;;;;;;22.84;32.44;95387.28;6170354;28;109237;-61
2023/12/31 09:38:31;;;;;;;15.60;14.00;;;;;;;22.85;32.22;95380.84;6158717;28;109529;-61
2023/12/31 09:41:34;;;;;;;17.13;15.20;;;;;;;22.91;32.59;95382.34;6168577;28;111273;-61
2023/12/31 09:44:37;;;;;;;17.33;13.83;;;;;;;22.94;32.58;95379.84;6167723;28;109173;-61
2023/12/31 09:47:41;;;;;;;14.00;12.60;;;;;;;22.98;32.13;95374.69;6171120;28;109227;-61
2023/12/31 09:50:46;;;;;;;15.63;14.00;;;;;;;23.00;32.45;95369.84;6160460;28;110267;-63
2023/12/31 09:53:53;;;;;;;16.33;14.73;;;;;;;22.99;32.28;95360.25;6167250;28;109068;-66
2023/12/31 09:56:58;;;;;;;16.50;14.93;;;;;;;22.96;32.76;95367.00;6167497;28;112256;-61
2023/12/31 10:00:04;;;;;;;16.30;14.60;;;;;;;23.01;32.46;95358.06;6158854;28;109343;-61
2023/12/31 10:03:08;;;;;;;16.30;14.70;;;;;;;23.06;32.57;95352.63;6169770;28;110472;-60
2023/12/31 10:06:14;;;;;;;16.27;14.40;;;;;;;23.12;32.40;95338.06;6166689;28;109108;-61
2023/12/31 10:09:19;;;;;;;18.07;15.30;;;;;;;23.14;32.23;95333.19;6166883;28;109268;-62
2023/12/31 10:12:23;;;;;;;16.97;15.20;;;;;;;23.22;32.43;95331.69;6159471;28;110251;-62
2023/12/31 10:15:27;;;;;;;16.23;14.73;;;;;;;23.28;32.47;95325.91;6167001;28;109136;-62
2023/12/31 10:18:30;;;;;;;17.10;14.53;;;;;;;23.40;32.48;95322.69;6164540;28;109222;-62
2023/12/31 10:21:35;;;;;;;17.70;15.03;;;;;;;23.44;32.34;95325.53;6167344;28;108937;-61
2023/12/31 10:24:38;;;;;;;16.47;14.87;;;;;;;23.51;32.31;95320.53;6159394;28;111640;-60
2023/12/31 10:27:46;;;;;;;17.97;16.17;;;;;;;23.59;32.48;95314.44;6167340;28;110238;-60
2023/12/31 10:30:50;;;;;;;18.30;16.50;;;;;;;23.61;32.80;95322.94;6172866;28;109182;-60
2023/12/31 10:33:53;;;;;;;17.40;15.60;;;;;;;23.64;32.53;95314.31;6161617;28;110244;-63
2023/12/31 10:37:05;;;;;;;16.83;15.10;;;;;;;23.60;32.64;95308.00;6168383;28;110162;-63
2023/12/31 10:40:20;;;;;;;17.43;15.80;;;;;;;23.59;33.08;95303.75;6170260;28;109320;-64
2023/12/31 10:43:23;;;;;;;18.13;15.90;;;;;;;23.54;32.50;95303.91;6174881;28;110200;-63
2023/12/31 10:46:31;;;;;;;16.03;14.53;;;;;;;23.49;33.05;95299.47;6160238;28;110188;-63
2023/12/31 10:49:35;;;;;;;15.67;14.17;;;;;;;23.50;32.87;95297.59;6171440;28;109188;-62
2023/12/31 10:52:42;;;;;;;16.93;13.50;;;;;;;23.49;32.90;95293.34;6170614;28;109264;-62
2023/12/31 10:55:48;;;;;;;17.00;13.77;;;;;;;23.50;33.04;95286.91;6168436;28;111717;-63
2023/12/31 10:58:55;;;;;;;13.37;11.93;;;;;;;23.28;33.09;95283.16;6164859;28;109029;-62
2023/12/31 11:01:59;;;;;;;12.63;10.83;;;;;;;23.35;32.44;95282.75;6169809;28;109729;-62
2023/12/31 11:05:04;;;;;;;14.97;10.50;;;;;;;23.39;31.26;95262.38;6173754;28;109077;-61
2023/12/31 11:08:10;;;;;;;10.30;9.30;;;;;;;23.39;31.19;95258.91;6158033;28;109804;-61
2023/12/31 11:11:14;;;;;;;10.27;8.97;;;;;;;23.40;31.03;95255.13;6176979;28;110020;-61
2023/12/31 11:14:24;;;;;;;10.13;8.60;;;;;;;23.38;30.83;95254.66;6168498;28;109488;-62
2023/12/31 11:17:51;;;;;;;9.77;7.73;;;;;;;23.38;30.87;95241.31;6187928;28;109328;-62
2023/12/31 11:21:08;;;;;;;9.37;8.50;;;;;;;23.36;30.16;95241.63;6162578;28;109095;-61
2023/12/31 11:24:18;;;;;;;9.90;8.87;;;;;;;23.35;29.93;95225.88;6162685;28;109777;-62
2023/12/31 11:27:21;;;;;;;10.43;8.47;;;;;;;23.42;30.15;95218.22;6171641;28;109572;-62
2023/12/31 11:30:57;;;;;;;9.00;8.10;;;;;;;23.36;30.18;95214.13;6163430;28;108820;-62
2023/12/31 11:34:01;;;;;;;9.50;8.60;;;;;;;23.35;29.81;95207.19;6085737;28;109189;-60
2023/12/31 11:37:06;;;;;;;8.27;7.47;;;;;;;23.35;30.17;95209.84;6162283;28;108992;-61
2023/12/31 11:40:11;;;;;;;8.77;7.93;;;;;;;23.34;30.45;95197.59;6167433;28;109094;-61
2023/12/31 11:43:16;;;;;;;9.40;7.23;;;;;;;23.33;29.75;95199.50;6166318;28;111217;-61
2023/12/31 11:46:34;;;;;;;8.60;7.80;;;;;;;23.32;29.89;95197.13;6166838;28;108971;-60
2023/12/31 11:49:40;;;;;;;10.23;7.70;;;;;;;23.29;29.88;95183.31;6164983;28;109230;-61
2023/12/31 11:52:43;;;;;;;9.73;8.73;;;;;;;23.28;30.42;95189.72;6158967;28;109124;-61
2023/12/31 11:55:54;;;;;;;8.27;7.47;;;;;;;23.34;29.96;95189.59;6158356;28;109918;-61
2023/12/31 11:58:58;;;;;;;9.00;8.10;;;;;;;23.30;30.56;95184.09;6164232;28;108707;-60
2023/12/31 12:02:02;;;;;;;8.00;7.30;;;;;;;23.29;30.71;95177.97;6172640;28;109335;-61
2023/12/31 12:05:06;;;;;;;8.83;7.43;;;;;;;23.27;31.21;95174.00;6167916;28;110702;-61
2023/12/31 12:08:12;;;;;;;8.73;7.90;;;;;;;23.26;31.22;95175.09;6177511;28;110222;-60
2023/12/31 12:11:16;;;;;;;11.57;7.70;;;;;;;23.28;31.03;95172.91;6165248;28;111242;-60
2023/12/31 12:14:19;;;;;;;8.00;7.30;;;;;;;23.30;31.45;95165.41;6166538;28;109344;-60
2023/12/31 12:17:28;;;;;;;9.17;8.27;;;;;;;23.32;31.25;95165.88;6154794;28;109774;-62
2023/12/31 12:20:31;;;;;;;9.60;8.60;;;;;;;23.30;31.76;95158.19;6167900;28;111201;-60
2023/12/31 12:23:38;;;;;;;10.10;9.10;;;;;;;23.29;31.62;95158.50;6163202;28;109119;-61
2023/12/31 12:26:43;;;;;;;10.40;9.33;;;;;;;22.82;31.06;95146.66;6161852;28;110462;-60
2023/12/31 12:29:47;;;;;;;9.90;9.00;;;;;;;22.48;31.52;95145.38;6155159;28;109617;-60
2023/12/31 12:32:50;;;;;;;9.80;8.90;;;;;;;22.22;31.55;95144.44;6164273;28;109213;-60
2023/12/31 12:35:55;;;;;;;10.57;9.70;;;;;;;22.05;31.72;95142.44;6172257;28;111443;-61
2023/12/31 12:39:02;;;;;;;10.67;9.67;;;;;;;21.98;31.21;95140.19;6152666;28;109492;-60
2023/12/31 12:42:08;;;;;;;11.47;10.37;;;;;;;21.89;31.23;95135.91;6164634;28;109118;-60
2023/12/31 12:45:12;;;;;;;10.67;9.67;;;;;;;21.89;31.32;95136.69;6186671;28;109715;-60
2023/12/31 12:48:17;;;;;;;10.40;9.50;;;;;;;21.85;31.26;95142.91;6173876;28;110039;-60
2023/12/31 12:51:20;;;;;;;10.00;9.20;;;;;;;21.83;31.28;95145.84;6150716;28;109164;-59
2023/12/31 12:54:23;;;;;;;11.13;10.10;;;;;;;21.77;31.27;95131.06;6162603;28;109101;-60
2023/12/31 12:57:29;;;;;;;10.20;9.30;;;;;;;21.71;31.67;95135.72;6164425;28;109100;-61
2023/12/31 13:00:32;;;;;;;11.53;10.40;;;;;;;21.71;31.73;95137.59;6163569;28;111971;-61
2023/12/31 13:03:36;;;;;;;10.17;9.27;;;;;;;21.95;31.84;95122.13;6157752;28;110096;-61
2023/12/31 13:06:39;;;;;;;10.00;9.20;;;;;;;22.32;31.76;95120.19;6167008;28;109190;-61
2023/12/31 13:09:42;;;;;;;9.77;8.87;;;;;;;22.47;32.00;95113.69;6172636;28;109714;-59
2023/12/31 13:12:47;;;;;;;9.50;8.60;;;;;;;22.54;31.74;95108.72;6161313;28;109382;-58
2023/12/31 13:15:50;;;;;;;9.53;8.50;;;;;;;22.65;31.62;95113.47;6165481;28;110238;-59
2023/12/31 13:18:53;;;;;;;9.20;8.33;;;;;;;22.70;31.69;95112.59;6169274;28;110280;-58
2023/12/31 13:21:56;;;;;;;8.33;7.63;;;;;;;22.76;31.38;95105.22;6165347;28;109782;-59
2023/12/31 13:24:59;;;;;;;9.63;8.80;;;;;;;22.79;30.98;95104.59;6165130;28;109110;-57
2023/12/31 13:28:05;;;;;;;8.53;7.83;;;;;;;22.82;30.93;95109.31;6161996;28;109089;-59
2023/12/31 13:31:08;;;;;;;9.30;8.50;;;;;;;22.83;31.21;95109.00;6167668;28;110158;-59
2023/12/31 13:34:11;;;;;;;8.90;8.07;;;;;;;22.86;31.26;95104.97;6162661;28;109268;-59
2023/12/31 13:37:14;;;;;;;8.60;7.80;;;;;;;22.88;31.41;95110.78;6154078;28;109672;-59
2023/12/31 13:40:18;;;;;;;9.50;8.60;;;;;;;22.85;31.24;95109.50;6162196;28;110232;-58
2023/12/31 13:43:22;;;;;;;8.57;7.77;;;;;;;22.88;31.36;95106.22;6162829;28;109328;-58
2023/12/31 13:46:26;;;;;;;8.20;7.50;;;;;;;22.91;30.91;95123.50;6159170;28;109068;-59
2023/12/31 13:49:29;;;;;;;8.43;7.73;;;;;;;22.93;31.17;95119.41;6157891;28;109683;-58
2023/12/31 13:52:33;;;;;;;8.03;7.33;;;;;;;22.96;30.81;95123.34;6160739;28;109419;-59
2023/12/31 13:55:36;;;;;;;7.77;7.07;;;;;;;22.98;30.94;95113.94;6159581;28;110317;-61
2023/12/31 13:58:41;;;;;;;9.23;7.40;;;;;;;22.98;31.01;95118.47;6153494;28;111089;-61
2023/12/31 14:01:44;;;;;;;7.57;6.90;;;;;;;22.96;31.22;95112.66;6167632;28;110713;-61
2023/12/31 14:04:48;;;;;;;8.07;7.27;;;;;;;22.99;31.46;95115.50;6169418;28;109039;-61
2023/12/31 14:07:51;;;;;;;7.67;6.90;;;;;;;23.00;31.33;95116.28;6160705;28;109699;-61